createdAt,value
2019-01-29T00:00:46.807Z,93.40
2019-01-29T00:03:17.253Z,87.80
2019-01-29T00:05:47.420Z,92.47
2019-01-29T00:08:17.582Z,90.60
2019-01-29T00:10:47.822Z,91.30
2019-01-29T00:13:17.910Z,87.67
2019-01-29T00:15:49.133Z,87.70
2019-01-29T00:18:19.324Z,89.57
2019-01-29T00:20:49.604Z,87.17
2019-01-29T00:23:19.775Z,86.53
2019-01-29T00:25:50.026Z,90.97
2019-01-29T00:28:20.261Z,91.17
2019-01-29T00:30:50.569Z,91.90
2019-01-29T00:33:20.703Z,88.43
2019-01-29T00:35:50.925Z,85.93
2019-01-29T00:38:22.088Z,89.93
2019-01-29T00:40:52.137Z,89.00
2019-01-29T00:43:22.268Z,87.83
2019-01-29T00:45:52.402Z,91.27
2019-01-29T00:48:22.614Z,88.83
2019-01-29T00:50:52.951Z,85.90
2019-01-29T00:53:23.038Z,86.60
2019-01-29T00:55:53.202Z,84.87
2019-01-29T00:58:23.364Z,87.10
2019-01-29T01:00:53.471Z,87.67
2019-01-29T01:03:24.627Z,89.47
2019-01-29T01:05:54.762Z,89.03
2019-01-29T01:08:25.110Z,91.00
2019-01-29T01:10:55.323Z,91.17
2019-01-29T01:13:25.535Z,89.43
2019-01-29T01:15:55.666Z,92.87
2019-01-29T01:18:26.001Z,91.13
2019-01-29T01:20:56.259Z,93.03
2019-01-29T01:23:26.399Z,91.53
2019-01-29T01:25:56.622Z,88.40
2019-01-29T01:28:26.770Z,90.13
2019-01-29T01:30:56.870Z,86.87
2019-01-29T01:33:27.160Z,91.73
2019-01-29T01:35:57.334Z,86.70
2019-01-29T01:38:27.602Z,88.37
2019-01-29T01:40:57.833Z,84.03
2019-01-29T01:43:28.045Z,86.00
2019-01-29T01:45:58.190Z,85.40
2019-01-29T01:48:28.315Z,88.63
2019-01-29T01:50:58.510Z,83.53
2019-01-29T01:53:28.616Z,86.17
2019-01-29T01:55:58.991Z,88.67
2019-01-29T01:58:29.181Z,85.63
2019-01-29T02:00:59.482Z,86.13
2019-01-29T02:03:29.754Z,86.93
2019-01-29T02:06:00.161Z,84.47
2019-01-29T02:08:30.538Z,87.63
2019-01-29T02:11:00.677Z,87.33
2019-01-29T02:13:30.899Z,87.03
2019-01-29T02:16:01.126Z,86.87
2019-01-29T02:18:31.295Z,84.43
2019-01-29T02:21:01.614Z,86.73
2019-01-29T02:23:31.822Z,83.40
2019-01-29T02:26:02.089Z,87.53
2019-01-29T02:28:32.297Z,87.43
2019-01-29T02:31:02.920Z,85.00
2019-01-29T02:33:33.092Z,85.03
2019-01-29T02:36:03.561Z,85.67
2019-01-29T02:38:33.789Z,85.90
2019-01-29T02:41:03.989Z,81.07
2019-01-29T02:43:34.119Z,80.53
2019-01-29T02:46:04.258Z,79.90
2019-01-29T02:48:34.421Z,78.83
2019-01-29T02:51:04.607Z,81.17
2019-01-29T02:53:34.787Z,75.77
2019-01-29T02:56:05.289Z,76.07
2019-01-29T02:58:35.502Z,80.27
2019-01-29T03:01:06.059Z,82.20
2019-01-29T03:03:36.241Z,81.00
2019-01-29T03:06:06.915Z,80.53
2019-01-29T03:08:37.080Z,77.97
2019-01-29T03:11:07.268Z,77.57
2019-01-29T03:13:37.435Z,80.40
2019-01-29T03:16:07.662Z,77.67
2019-01-29T03:18:37.823Z,79.27
2019-01-29T03:21:07.969Z,75.33
2019-01-29T03:23:38.082Z,81.57
2019-01-29T03:26:08.324Z,78.20
2019-01-29T03:28:38.474Z,77.00
2019-01-29T03:31:08.643Z,73.73
2019-01-29T03:33:38.828Z,74.03
2019-01-29T03:36:09.063Z,70.90
2019-01-29T03:38:39.197Z,70.57
2019-01-29T03:41:09.328Z,68.47
2019-01-29T03:43:39.461Z,68.73
2019-01-29T03:46:09.547Z,67.80
2019-01-29T03:48:39.929Z,65.23
2019-01-29T03:51:10.046Z,64.17
2019-01-29T03:53:40.215Z,64.70
2019-01-29T03:56:10.354Z,62.73
2019-01-29T03:58:40.466Z,61.60
2019-01-29T04:01:10.727Z,61.63
2019-01-29T04:03:40.891Z,62.93
2019-01-29T04:06:11.150Z,61.33
2019-01-29T04:08:41.341Z,61.60
2019-01-29T04:11:11.593Z,60.73
2019-01-29T04:13:41.823Z,59.63
2019-01-29T04:16:12.138Z,61.93
2019-01-29T04:18:42.282Z,60.93
2019-01-29T04:21:12.518Z,66.87
2019-01-29T04:23:47.745Z,63.60
2019-01-29T04:26:14.533Z,62.97
2019-01-29T04:28:44.722Z,61.83
2019-01-29T04:31:14.892Z,57.77
2019-01-29T04:33:45.182Z,57.83
2019-01-29T04:36:15.466Z,56.03
2019-01-29T04:38:45.627Z,54.00
2019-01-29T04:41:15.793Z,55.47
2019-01-29T04:43:46.001Z,54.63
2019-01-29T04:46:16.339Z,57.63
2019-01-29T04:48:46.459Z,60.37
2019-01-29T04:51:16.575Z,60.17
2019-01-29T04:53:46.749Z,62.63
2019-01-29T04:56:17.102Z,63.37
2019-01-29T04:58:47.282Z,62.40
2019-01-29T05:01:18.476Z,64.87
2019-01-29T05:03:48.739Z,63.00
2019-01-29T05:06:18.866Z,64.93
2019-01-29T05:08:49.155Z,67.57
2019-01-29T05:11:19.400Z,64.97
2019-01-29T05:13:49.660Z,67.07
2019-01-29T05:16:19.839Z,65.33
2019-01-29T05:18:50.068Z,63.87
2019-01-29T05:21:20.204Z,64.17
2019-01-29T05:23:50.423Z,62.47
2019-01-29T05:26:20.921Z,62.70
2019-01-29T05:28:51.191Z,62.60
2019-01-29T05:31:21.597Z,61.33
2019-01-29T05:33:51.726Z,69.30
2019-01-29T05:36:22.763Z,69.37
2019-01-29T05:38:53.085Z,68.07
2019-01-29T05:41:23.622Z,65.97
2019-01-29T05:43:53.871Z,65.63
2019-01-29T05:46:25.242Z,63.07
2019-01-29T05:48:55.573Z,64.40
2019-01-29T05:51:25.748Z,66.57
2019-01-29T05:53:55.937Z,63.90
2019-01-29T05:56:26.147Z,62.30
2019-01-29T05:58:56.377Z,63.67
2019-01-29T06:01:26.503Z,63.27
2019-01-29T06:03:56.711Z,63.60
2019-01-29T06:06:26.934Z,58.53
2019-01-29T06:08:57.187Z,59.23
2019-01-29T06:11:27.412Z,57.77
2019-01-29T06:13:57.615Z,57.43
2019-01-29T06:16:27.802Z,57.60
2019-01-29T06:18:58.143Z,56.63
2019-01-29T06:21:28.298Z,56.93
2019-01-29T06:23:58.531Z,56.43
2019-01-29T06:26:28.701Z,57.57
2019-01-29T06:28:59.000Z,56.30
2019-01-29T06:31:29.126Z,59.63
2019-01-29T06:33:59.461Z,55.83
2019-01-29T06:36:29.753Z,54.40
2019-01-29T06:38:59.894Z,57.13
2019-01-29T06:41:30.183Z,57.30
2019-01-29T06:44:00.298Z,59.10
2019-01-29T06:46:30.462Z,58.37
2019-01-29T06:49:00.785Z,59.43
2019-01-29T06:51:31.015Z,58.97
2019-01-29T06:54:01.198Z,60.07
2019-01-29T06:56:31.390Z,57.73
2019-01-29T06:59:01.660Z,57.83
2019-01-29T07:01:31.846Z,55.93
2019-01-29T07:04:02.067Z,58.63
2019-01-29T07:06:32.270Z,56.80
2019-01-29T07:09:02.403Z,57.03
2019-01-29T07:11:33.674Z,56.80
2019-01-29T07:14:03.777Z,56.87
2019-01-29T07:16:41.546Z,56.97
2019-01-29T07:19:22.781Z,56.93
2019-01-29T07:21:53.206Z,58.57
2019-01-29T07:24:23.409Z,58.40
2019-01-29T07:26:53.610Z,57.80
2019-01-29T07:29:23.769Z,58.97
2019-01-29T07:31:53.950Z,58.07
2019-01-29T07:34:24.164Z,59.30
2019-01-29T07:36:55.329Z,57.13
2019-01-29T07:39:25.514Z,58.00
2019-01-29T07:41:55.698Z,65.67
2019-01-29T07:44:25.787Z,60.27
2019-01-29T07:46:55.953Z,57.70
2019-01-29T07:49:26.280Z,56.93
2019-01-29T07:51:56.403Z,53.70
2019-01-29T07:54:33.171Z,54.53
2019-01-29T07:56:58.443Z,54.80
2019-01-29T07:59:33.077Z,54.07
2019-01-29T08:02:00.395Z,54.50
2019-01-29T08:04:30.557Z,56.03
2019-01-29T08:07:00.705Z,51.23
2019-01-29T08:09:31.050Z,52.50
2019-01-29T08:12:01.249Z,49.43
2019-01-29T08:14:31.444Z,51.07
2019-01-29T08:17:01.559Z,49.10
2019-01-29T08:19:31.797Z,49.87
2019-01-29T08:22:01.959Z,48.30
2019-01-29T08:24:33.580Z,47.27
2019-01-29T08:27:03.831Z,47.47
2019-01-29T08:29:34.166Z,46.90
2019-01-29T08:32:04.389Z,46.17
2019-01-29T08:34:34.541Z,46.00
2019-01-29T08:37:04.752Z,47.87
2019-01-29T08:39:35.006Z,44.63
2019-01-29T08:42:05.472Z,45.60
2019-01-29T08:44:35.626Z,47.17
2019-01-29T08:47:05.772Z,47.47
2019-01-29T08:49:36.283Z,43.87
2019-01-29T08:52:06.438Z,45.20
2019-01-29T08:54:36.597Z,46.00
2019-01-29T08:57:06.724Z,53.00
2019-01-29T08:59:36.846Z,83.43
2019-01-29T09:02:08.170Z,72.53
2019-01-29T09:04:38.558Z,47.50
2019-01-29T09:07:08.726Z,45.67
2019-01-29T09:09:38.851Z,47.93
2019-01-29T09:12:09.014Z,47.60
2019-01-29T09:14:39.146Z,55.33
2019-01-29T09:17:09.575Z,53.23
2019-01-29T09:19:39.795Z,52.23
2019-01-29T09:22:09.953Z,53.70
2019-01-29T09:24:40.293Z,42.30
2019-01-29T09:27:10.674Z,40.83
2019-01-29T09:29:40.894Z,40.60
2019-01-29T09:32:11.052Z,40.93
2019-01-29T09:34:41.322Z,43.10
2019-01-29T09:37:11.637Z,40.43
2019-01-29T09:39:42.435Z,37.20
2019-01-29T09:42:12.581Z,37.60
2019-01-29T09:44:42.829Z,37.27
2019-01-29T09:47:12.942Z,36.43
2019-01-29T09:49:43.007Z,36.13
2019-01-29T09:52:13.245Z,35.53
2019-01-29T09:54:43.458Z,34.23
2019-01-29T09:57:14.173Z,34.70
2019-01-29T09:59:44.438Z,37.00
2019-01-29T10:02:14.570Z,35.13
2019-01-29T10:04:44.750Z,34.40
2019-01-29T10:07:15.010Z,33.67
2019-01-29T10:09:45.141Z,32.73
2019-01-29T10:12:15.389Z,34.93
2019-01-29T10:14:45.762Z,35.13
2019-01-29T10:17:16.293Z,34.43
2019-01-29T10:19:46.541Z,34.20
2019-01-29T10:22:16.667Z,32.03
2019-01-29T10:24:46.754Z,32.93
2019-01-29T10:27:17.282Z,33.00
2019-01-29T10:29:47.406Z,33.30
2019-01-29T10:32:17.653Z,34.20
2019-01-29T10:34:47.830Z,34.77
2019-01-29T10:37:18.010Z,34.77
2019-01-29T10:39:48.389Z,34.07
2019-01-29T10:42:18.554Z,32.23
2019-01-29T10:44:48.773Z,34.40
2019-01-29T10:47:18.994Z,31.60
2019-01-29T10:49:49.298Z,31.57
2019-01-29T10:52:19.447Z,30.53
2019-01-29T10:54:49.629Z,30.53
2019-01-29T10:57:19.784Z,26.63
2019-01-29T10:59:49.977Z,26.40
2019-01-29T11:02:20.174Z,26.10
2019-01-29T11:04:50.366Z,26.20
2019-01-29T11:07:20.438Z,26.13
2019-01-29T11:09:50.667Z,26.33
2019-01-29T11:12:20.882Z,26.03
2019-01-29T11:14:50.998Z,26.30
2019-01-29T11:17:21.183Z,26.97
2019-01-29T11:19:51.317Z,27.53
2019-01-29T11:22:21.381Z,25.93
2019-01-29T11:24:51.526Z,27.63
2019-01-29T11:27:21.766Z,28.43
2019-01-29T11:29:51.975Z,26.33
2019-01-29T11:32:22.135Z,26.13
2019-01-29T11:34:52.267Z,25.47
2019-01-29T11:37:22.455Z,25.93
2019-01-29T11:39:52.581Z,26.70
2019-01-29T11:42:22.879Z,25.67
2019-01-29T11:44:53.030Z,27.10
2019-01-29T11:47:23.175Z,26.60
2019-01-29T11:49:53.330Z,25.47
2019-01-29T11:52:23.459Z,23.77
2019-01-29T11:54:53.753Z,24.40
2019-01-29T11:57:23.963Z,24.33
2019-01-29T11:59:54.178Z,24.17
2019-01-29T12:02:28.493Z,23.33
2019-01-29T12:04:56.222Z,24.17
2019-01-29T12:07:26.575Z,26.17
2019-01-29T12:09:56.704Z,24.47
2019-01-29T12:12:26.859Z,25.60
2019-01-29T12:14:57.058Z,27.30
2019-01-29T12:17:27.262Z,33.50
2019-01-29T12:19:57.435Z,31.37
2019-01-29T12:22:27.678Z,27.60
2019-01-29T12:24:57.730Z,27.17
2019-01-29T12:27:28.954Z,28.43
2019-01-29T12:29:59.089Z,24.90
2019-01-29T12:32:29.279Z,27.13
2019-01-29T12:34:59.486Z,24.50
2019-01-29T12:37:29.655Z,22.70
2019-01-29T12:39:59.767Z,22.67
2019-01-29T12:42:30.081Z,22.57
2019-01-29T12:45:00.265Z,22.67
2019-01-29T12:47:30.440Z,25.37
2019-01-29T12:50:00.611Z,24.80
2019-01-29T12:52:48.902Z,24.80
2019-01-29T12:55:19.281Z,25.50
2019-01-29T12:57:49.653Z,26.47
2019-01-29T13:00:20.183Z,27.60
2019-01-29T13:02:50.593Z,26.27
2019-01-29T13:05:21.189Z,22.70
2019-01-29T13:07:51.414Z,26.23
2019-01-29T13:10:22.046Z,35.40
2019-01-29T13:12:53.182Z,28.77
2019-01-29T13:15:26.502Z,24.13
2019-01-29T13:17:56.953Z,21.57
2019-01-29T13:20:27.079Z,24.60
2019-01-29T13:22:57.444Z,24.43
2019-01-29T13:25:27.577Z,23.60
2019-01-29T13:27:57.730Z,20.63
2019-01-29T13:30:32.666Z,20.13
2019-01-29T13:33:03.090Z,17.97
2019-01-29T13:35:34.838Z,21.67
2019-01-29T13:38:05.741Z,19.63
2019-01-29T13:40:36.148Z,20.50
2019-01-29T13:43:06.909Z,20.30
2019-01-29T13:45:37.190Z,19.30
2019-01-29T13:48:07.533Z,19.93
2019-01-29T13:50:40.908Z,20.37
2019-01-29T13:53:11.161Z,20.03
2019-01-29T13:55:41.543Z,19.27
2019-01-29T13:58:13.619Z,21.37
2019-01-29T14:00:43.944Z,19.90
2019-01-29T14:03:14.124Z,19.37
2019-01-29T14:05:44.281Z,19.77
2019-01-29T14:08:14.404Z,20.30
2019-01-29T14:10:44.531Z,18.80
2019-01-29T14:13:14.882Z,20.33
2019-01-29T14:15:47.460Z,19.13
2019-01-29T14:18:18.830Z,19.67
2019-01-29T14:20:49.021Z,18.77
2019-01-29T14:23:19.110Z,19.73
2019-01-29T14:25:49.382Z,22.03
2019-01-29T14:28:19.647Z,20.23
2019-01-29T14:30:49.927Z,20.17
2019-01-29T14:33:20.276Z,19.83
2019-01-29T14:35:50.427Z,20.33
2019-01-29T14:39:03.834Z,19.33
2019-01-29T14:41:35.738Z,20.60
2019-01-29T14:44:08.612Z,21.27
2019-01-29T14:46:38.729Z,18.43
2019-01-29T14:49:08.863Z,19.77
2019-01-29T14:51:39.038Z,18.80
2019-01-29T14:54:09.689Z,18.87
2019-01-29T14:56:39.809Z,18.63
2019-01-29T14:59:10.020Z,18.33
2019-01-29T15:01:41.193Z,20.33
2019-01-29T15:04:11.582Z,18.93
2019-01-29T15:06:41.801Z,19.33
2019-01-29T15:09:12.972Z,20.57
2019-01-29T15:11:43.203Z,22.70
2019-01-29T15:14:13.510Z,22.33
2019-01-29T15:17:02.830Z,24.33
2019-01-29T15:19:33.731Z,23.67
2019-01-29T15:22:04.011Z,22.97
2019-01-29T15:24:34.214Z,23.17
2019-01-29T15:27:05.991Z,23.50
2019-01-29T15:29:36.626Z,27.40
2019-01-29T15:32:06.883Z,28.17
2019-01-29T15:34:37.075Z,22.33
2019-01-29T15:37:07.260Z,27.23
2019-01-29T15:39:37.676Z,34.30
2019-01-29T15:42:07.866Z,28.53
2019-01-29T15:44:38.117Z,24.17
2019-01-29T15:47:08.276Z,24.80
2019-01-29T15:49:38.525Z,23.53
2019-01-29T15:52:08.734Z,22.13
2019-01-29T15:54:38.898Z,23.77
2019-01-29T15:57:14.022Z,22.87
2019-01-29T15:59:43.085Z,24.77
2019-01-29T16:02:12.896Z,24.83
2019-01-29T16:04:43.153Z,25.57
2019-01-29T16:07:13.329Z,26.53
2019-01-29T16:09:43.683Z,25.67
2019-01-29T16:12:13.883Z,26.20
2019-01-29T16:14:44.070Z,23.67
2019-01-29T16:17:14.254Z,21.27
2019-01-29T16:19:44.470Z,21.57
2019-01-29T16:22:14.580Z,20.87
2019-01-29T16:24:44.811Z,20.93
2019-01-29T16:27:22.614Z,21.50
2019-01-29T16:29:47.250Z,22.17
2019-01-29T16:32:17.396Z,22.77
2019-01-29T16:34:47.552Z,20.30
2019-01-29T16:37:17.749Z,21.23
2019-01-29T16:39:48.041Z,21.83
2019-01-29T16:42:18.285Z,24.43
2019-01-29T16:44:48.450Z,23.17
2019-01-29T16:47:18.667Z,22.00
2019-01-29T16:49:48.862Z,21.50
2019-01-29T16:52:18.981Z,21.20
2019-01-29T16:54:49.211Z,21.50
2019-01-29T16:57:19.447Z,21.53
2019-01-29T16:59:49.665Z,21.93
2019-01-29T17:02:19.781Z,22.07
2019-01-29T17:04:50.050Z,29.93
2019-01-29T17:07:20.521Z,32.77
2019-01-29T17:09:50.768Z,35.33
2019-01-29T17:12:21.141Z,32.60
2019-01-29T17:14:51.240Z,28.93
2019-01-29T17:17:21.510Z,32.00
2019-01-29T17:19:51.697Z,31.87
2019-01-29T17:22:21.973Z,30.93
2019-01-29T17:24:52.430Z,28.93
2019-01-29T17:27:22.513Z,29.20
2019-01-29T17:29:52.718Z,29.50
2019-01-29T17:32:30.317Z,29.93
2019-01-29T17:34:56.296Z,28.03
2019-01-29T17:37:26.494Z,32.90
2019-01-29T17:39:57.009Z,39.83
2019-01-29T17:42:27.226Z,29.70
2019-01-29T17:44:57.494Z,32.37
2019-01-29T17:47:27.679Z,33.03
2019-01-29T17:49:57.945Z,31.03
2019-01-29T17:52:28.253Z,27.07
2019-01-29T17:54:58.442Z,26.97
2019-01-29T17:57:28.625Z,29.43
2019-01-29T17:59:58.869Z,28.20
2019-01-29T18:02:29.150Z,28.80
2019-01-29T18:05:01.351Z,28.70
2019-01-29T18:07:31.633Z,29.03
2019-01-29T18:10:01.859Z,27.97
2019-01-29T18:12:32.112Z,28.90
2019-01-29T18:15:05.448Z,31.60
2019-01-29T18:17:48.684Z,34.00
2019-01-29T18:20:24.856Z,32.47
2019-01-29T18:22:55.169Z,31.27
2019-01-29T18:25:25.461Z,29.90
2019-01-29T18:28:01.430Z,33.07
2019-01-29T18:30:30.091Z,34.27
2019-01-29T18:33:00.278Z,35.80
2019-01-29T18:35:32.135Z,34.50
2019-01-29T18:38:02.299Z,30.00
2019-01-29T18:40:35.950Z,29.23
2019-01-29T18:43:06.643Z,29.47
2019-01-29T18:45:36.834Z,31.50
2019-01-29T18:48:07.085Z,34.73
2019-01-29T18:50:37.454Z,31.77
2019-01-29T18:53:07.754Z,31.37
2019-01-29T18:55:38.014Z,30.47
2019-01-29T18:58:12.033Z,29.37
2019-01-29T19:00:40.426Z,28.23
2019-01-29T19:03:10.897Z,35.63
2019-01-29T19:05:44.098Z,33.80
2019-01-29T19:08:14.527Z,32.53
2019-01-29T19:10:47.140Z,33.90
2019-01-29T19:13:17.432Z,33.57
2019-01-29T19:15:47.656Z,33.03
2019-01-29T19:18:17.978Z,30.23
2019-01-29T19:20:48.158Z,29.33
2019-01-29T19:23:18.489Z,29.63
2019-01-29T19:25:48.750Z,30.27
2019-01-29T19:28:22.281Z,32.20
2019-01-29T19:30:52.822Z,32.93
2019-01-29T19:33:23.079Z,33.47
2019-01-29T19:35:53.310Z,38.67
2019-01-29T19:38:23.586Z,39.13
2019-01-29T19:40:54.058Z,41.30
2019-01-29T19:43:24.417Z,39.23
2019-01-29T19:45:54.777Z,37.13
2019-01-29T19:48:25.259Z,34.90
2019-01-29T19:50:55.477Z,31.63
2019-01-29T19:53:25.854Z,30.70
2019-01-29T19:55:56.058Z,30.00
2019-01-29T19:58:32.299Z,32.00
2019-01-29T20:00:58.330Z,37.83
2019-01-29T20:03:28.712Z,39.97
2019-01-29T20:05:58.940Z,43.33
2019-01-29T20:08:29.386Z,42.40
2019-01-29T20:10:59.553Z,36.13
2019-01-29T20:13:29.927Z,34.47
2019-01-29T20:16:04.769Z,34.77
2019-01-29T20:18:35.052Z,32.80
2019-01-29T20:21:05.267Z,31.57
2019-01-29T20:23:35.740Z,32.23
2019-01-29T20:26:06.256Z,32.77
2019-01-29T20:28:42.451Z,33.00
2019-01-29T20:31:08.720Z,34.10
2019-01-29T20:33:40.801Z,33.90
2019-01-29T20:36:11.230Z,34.83
2019-01-29T20:38:41.556Z,34.97
2019-01-29T20:41:11.934Z,34.33
2019-01-29T20:43:43.161Z,33.00
2019-01-29T20:46:13.434Z,34.60
2019-01-29T20:48:43.934Z,36.10
2019-01-29T20:51:14.226Z,35.50
2019-01-29T20:53:44.414Z,37.60
2019-01-29T20:56:14.635Z,38.37
2019-01-29T20:58:52.472Z,37.97
2019-01-29T21:01:16.870Z,40.70
2019-01-29T21:03:47.247Z,38.30
2019-01-29T21:06:17.454Z,37.83
2019-01-29T21:08:47.780Z,35.80
2019-01-29T21:11:18.159Z,36.07
2019-01-29T21:13:48.487Z,43.93
2019-01-29T21:16:19.555Z,42.60
2019-01-29T21:18:49.844Z,39.33
2019-01-29T21:21:20.074Z,37.27
2019-01-29T21:23:50.345Z,35.90
2019-01-29T21:26:20.620Z,34.30
2019-01-29T21:28:51.014Z,34.07
2019-01-29T21:31:21.334Z,33.73
2019-01-29T21:33:51.562Z,35.00
2019-01-29T21:36:21.841Z,34.33
2019-01-29T21:38:52.106Z,34.10
2019-01-29T21:41:22.389Z,35.40
2019-01-29T21:43:52.573Z,36.13
2019-01-29T21:46:22.762Z,35.47
2019-01-29T21:48:52.982Z,36.00
2019-01-29T21:51:23.128Z,36.67
2019-01-29T21:53:53.548Z,33.57
2019-01-29T21:56:23.815Z,36.17
2019-01-29T21:58:54.881Z,35.03
2019-01-29T22:01:25.084Z,31.57
2019-01-29T22:03:55.342Z,31.33
2019-01-29T22:06:25.602Z,28.80
2019-01-29T22:08:55.927Z,29.73
2019-01-29T22:11:26.196Z,30.50
2019-01-29T22:13:57.320Z,29.57
2019-01-29T22:16:27.530Z,30.23
2019-01-29T22:18:57.882Z,30.20
2019-01-29T22:21:28.177Z,29.43
2019-01-29T22:24:00.029Z,29.37
2019-01-29T22:26:30.279Z,29.47
2019-01-29T22:29:00.455Z,30.50
2019-01-29T22:31:33.987Z,31.57
2019-01-29T22:34:04.676Z,30.60
2019-01-29T22:36:35.107Z,30.23
2019-01-29T22:39:09.452Z,27.03
2019-01-29T22:41:40.462Z,29.23
2019-01-29T22:44:10.650Z,31.03
2019-01-29T22:46:40.815Z,31.00
2019-01-29T22:49:11.018Z,30.43
2019-01-29T22:51:41.227Z,30.03
2019-01-29T22:54:11.473Z,31.37
2019-01-29T22:56:41.736Z,29.17
2019-01-29T22:59:11.954Z,28.20
2019-01-29T23:01:43.050Z,26.53
2019-01-29T23:04:28.115Z,25.83
2019-01-29T23:07:16.243Z,26.97
2019-01-29T23:09:49.769Z,27.20
2019-01-29T23:12:20.002Z,29.00
2019-01-29T23:14:50.317Z,30.17
2019-01-29T23:17:20.425Z,29.13
2019-01-29T23:19:56.393Z,27.70
2019-01-29T23:22:26.575Z,29.33
2019-01-29T23:24:56.960Z,29.13
2019-01-29T23:27:27.286Z,29.07
2019-01-29T23:30:00.551Z,27.23
2019-01-29T23:32:30.833Z,25.93
2019-01-29T23:35:01.036Z,27.63
2019-01-29T23:37:32.341Z,26.93
2019-01-29T23:40:02.593Z,27.70
2019-01-29T23:42:33.097Z,26.10
2019-01-29T23:45:03.441Z,27.10
2019-01-29T23:47:33.562Z,27.07
2019-01-29T23:50:04.084Z,26.90
2019-01-29T23:52:34.396Z,27.77
2019-01-29T23:55:05.274Z,27.50
2019-01-29T23:57:35.530Z,27.07
